Pagina principale
METAR-TAF:

METAR-TAF

Aeroporti :

Aeroporto militare

Salon-de-Provence, Francia

latitudine: 43-36N, longitudine: 005-06E, altezza: 59 m

Osservazione

Il bollettino è stato emesso 16 minuti fa, alle 17:30 UTC
Vento 7 kt da sud-ovest, variando fra sud/sud-ovest e ovest
Temperature 22°C
Umidità 57%
Pressione 1014 hPa
Visibilità 10 km o più
nessuna nube inferiore a 1500 m e nessun cumulonembo

METAR: LFMY 311730Z AUTO 23007KT 200V260 CAVOK 22/13 Q1014

Ora: 19:46 (17:46 UTC)


TAF: mancante

Osservazioni e previsioni meteorologiche di più di 4000 aeroporti (messaggi METAR e TAF).

Le stazioni disponibili sono rappresentate dai dischi gialli e rossi sulla carta.

Puntare il mouse per vedere il nome della stazione.

Clicca sopra per visualizzare le osservazioni e previsioni meteorologiche.

Per cambiare la mappa : fare clic sui pulsanti verdi con una croce nera per ingrandire, il pulsante verde con un trattino per diminuire, o sulla freccia verde per le mappe adiacenti.


METAR-TAF: